createdAt,value
2023-03-16T00:00:47.316Z,25.90
2023-03-16T00:03:54.641Z,25.80
2023-03-16T00:06:57.442Z,25.80
2023-03-16T00:09:59.774Z,25.90
2023-03-16T00:13:02.726Z,25.80
2023-03-16T00:16:05.381Z,25.80
2023-03-16T00:19:07.491Z,25.80
2023-03-16T00:22:09.792Z,25.80
2023-03-16T00:25:14.486Z,25.80
2023-03-16T00:28:16.844Z,25.80
2023-03-16T00:31:19.164Z,25.80
2023-03-16T00:34:22.871Z,25.80
2023-03-16T00:37:26.447Z,25.80
2023-03-16T00:40:29.148Z,25.80
2023-03-16T00:43:32.587Z,25.80
2023-03-16T00:46:34.928Z,25.80
2023-03-16T00:49:37.129Z,25.80
2023-03-16T00:52:39.423Z,25.80
2023-03-16T00:55:41.676Z,25.70
2023-03-16T00:58:43.949Z,25.80
2023-03-16T01:01:46.843Z,25.80
2023-03-16T01:04:49.414Z,25.80
2023-03-16T01:07:52.313Z,25.80
2023-03-16T01:10:55.510Z,25.80
2023-03-16T01:13:57.479Z,25.80
2023-03-16T01:16:59.994Z,25.80
2023-03-16T01:20:02.328Z,25.80
2023-03-16T01:23:04.663Z,25.70
2023-03-16T01:26:08.383Z,25.70
2023-03-16T01:29:12.210Z,25.70
2023-03-16T01:32:14.315Z,25.70
2023-03-16T01:35:16.639Z,25.70
2023-03-16T01:38:18.590Z,25.70
2023-03-16T01:41:22.048Z,25.70
2023-03-16T01:44:32.660Z,25.70
2023-03-16T01:47:38.366Z,25.60
2023-03-16T01:50:42.268Z,25.60
2023-03-16T01:53:46.589Z,25.60
2023-03-16T01:57:05.983Z,25.60
2023-03-16T02:00:22.084Z,25.60
2023-03-16T02:03:25.046Z,25.60
2023-03-16T02:06:28.790Z,25.60
2023-03-16T02:09:32.107Z,25.50
2023-03-16T02:12:34.685Z,25.50
2023-03-16T02:15:36.762Z,25.50
2023-03-16T02:18:39.171Z,25.50
2023-03-16T02:21:55.956Z,25.50
2023-03-16T02:24:58.238Z,25.50
2023-03-16T02:28:00.224Z,25.60
2023-03-16T02:31:04.187Z,25.60
2023-03-16T02:34:06.839Z,25.70
2023-03-16T02:37:10.525Z,25.80
2023-03-16T02:40:32.983Z,25.80
2023-03-16T02:43:38.101Z,25.90
2023-03-16T02:46:40.158Z,26.00
2023-03-16T02:49:46.083Z,26.00
2023-03-16T02:52:48.596Z,26.10
2023-03-16T02:55:51.221Z,26.20
2023-03-16T02:58:53.356Z,26.20
2023-03-16T03:01:55.625Z,26.30
2023-03-16T03:04:58.560Z,26.20
2023-03-16T03:08:01.327Z,26.20
2023-03-16T03:11:03.378Z,26.10
2023-03-16T03:14:05.976Z,26.10
2023-03-16T03:17:09.807Z,26.00
2023-03-16T03:20:17.549Z,25.90
2023-03-16T03:23:19.712Z,25.90
2023-03-16T03:26:22.639Z,25.90
2023-03-16T03:29:24.615Z,25.80
2023-03-16T03:32:26.946Z,25.80
2023-03-16T03:35:29.067Z,25.80
2023-03-16T03:38:31.441Z,25.80
2023-03-16T03:41:34.179Z,25.80
2023-03-16T03:44:36.489Z,25.80
2023-03-16T03:47:38.711Z,25.80
2023-03-16T03:50:40.970Z,25.70
2023-03-16T03:53:43.158Z,25.70
2023-03-16T03:56:45.456Z,25.70
2023-03-16T03:59:47.445Z,25.80
2023-03-16T04:02:49.781Z,25.70
2023-03-16T04:05:52.006Z,25.60
2023-03-16T04:08:54.485Z,25.60
2023-03-16T04:11:57.592Z,25.70
2023-03-16T04:14:59.973Z,25.70
2023-03-16T04:18:02.037Z,25.60
2023-03-16T04:21:12.620Z,25.70
2023-03-16T04:24:17.430Z,25.70
2023-03-16T04:27:19.738Z,25.70
2023-03-16T04:30:23.488Z,25.70
2023-03-16T04:33:26.056Z,25.70
2023-03-16T04:36:28.186Z,25.60
2023-03-16T04:39:30.492Z,25.70
2023-03-16T04:42:32.496Z,25.60
2023-03-16T04:45:34.880Z,25.60
2023-03-16T04:48:37.675Z,25.70
2023-03-16T04:51:40.846Z,25.60
2023-03-16T04:54:42.924Z,25.60
2023-03-16T04:57:45.953Z,25.60
2023-03-16T05:00:48.492Z,25.50
2023-03-16T05:03:50.835Z,25.50
2023-03-16T05:06:52.936Z,25.50
2023-03-16T05:09:55.258Z,25.50
2023-03-16T05:12:57.243Z,25.50
2023-03-16T05:15:59.571Z,25.40
2023-03-16T05:19:01.939Z,25.40
2023-03-16T05:22:04.259Z,25.30
2023-03-16T05:25:06.759Z,25.10
2023-03-16T05:28:09.217Z,25.30
2023-03-16T05:31:11.885Z,25.40
2023-03-16T05:34:14.966Z,25.50
2023-03-16T05:37:17.034Z,25.60
2023-03-16T05:40:20.275Z,25.60
2023-03-16T05:43:22.451Z,25.70
2023-03-16T05:46:24.775Z,25.80
2023-03-16T05:49:26.829Z,25.80
2023-03-16T05:52:29.095Z,26.00
2023-03-16T05:55:31.106Z,26.10
2023-03-16T05:58:33.988Z,25.80
2023-03-16T06:01:36.085Z,25.90
2023-03-16T06:04:38.358Z,26.00
2023-03-16T06:07:40.538Z,26.20
2023-03-16T06:10:42.820Z,26.40
2023-03-16T06:13:46.015Z,26.40
2023-03-16T06:16:48.270Z,26.60
2023-03-16T06:19:51.502Z,26.80
2023-03-16T06:22:53.772Z,26.80
2023-03-16T06:25:55.924Z,26.90
2023-03-16T06:28:58.183Z,27.00
2023-03-16T06:32:00.228Z,27.00
2023-03-16T06:35:03.582Z,27.00
2023-03-16T06:38:05.691Z,26.90
2023-03-16T06:41:08.018Z,26.80
2023-03-16T06:44:11.598Z,26.90
2023-03-16T06:47:14.388Z,26.80
2023-03-16T06:50:16.577Z,26.80
2023-03-16T06:53:18.879Z,27.00
2023-03-16T06:56:20.885Z,27.30
2023-03-16T06:59:23.769Z,27.50
2023-03-16T07:02:25.974Z,27.50
2023-03-16T07:05:29.052Z,27.50
2023-03-16T07:08:31.400Z,27.20
2023-03-16T07:11:36.325Z,27.50
2023-03-16T07:14:38.505Z,27.80
2023-03-16T07:17:42.650Z,27.90
2023-03-16T07:20:45.174Z,28.00
2023-03-16T07:23:50.475Z,28.10
2023-03-16T07:26:53.329Z,28.20
2023-03-16T07:29:56.306Z,28.30
2023-03-16T07:33:01.825Z,28.40
2023-03-16T07:36:11.663Z,28.40
2023-03-16T07:39:14.630Z,28.10
2023-03-16T07:42:18.165Z,28.30
2023-03-16T07:45:21.545Z,28.20
2023-03-16T07:48:24.734Z,28.00
2023-03-16T07:51:26.944Z,28.10
2023-03-16T07:54:29.952Z,28.40
2023-03-16T07:57:32.756Z,29.00
2023-03-16T08:00:36.500Z,28.90
2023-03-16T08:03:40.287Z,28.90
2023-03-16T08:06:45.610Z,29.00
2023-03-16T08:09:47.755Z,28.80
2023-03-16T08:12:51.903Z,28.60
2023-03-16T08:15:58.674Z,28.20
2023-03-16T08:19:02.540Z,28.10
2023-03-16T08:22:06.331Z,27.80
2023-03-16T08:25:12.346Z,27.90
2023-03-16T08:28:17.046Z,27.70
2023-03-16T08:31:22.685Z,27.40
2023-03-16T08:34:27.219Z,27.60
2023-03-16T08:37:31.917Z,27.40
2023-03-16T08:40:34.945Z,27.70
2023-03-16T08:43:37.577Z,27.70
2023-03-16T08:46:40.876Z,27.60
2023-03-16T08:49:44.929Z,27.90
2023-03-16T08:52:49.131Z,28.20
2023-03-16T08:55:52.480Z,28.30
2023-03-16T08:58:55.262Z,28.50
2023-03-16T09:02:00.853Z,28.50
2023-03-16T09:05:03.138Z,28.50
2023-03-16T09:08:06.257Z,28.40
2023-03-16T09:11:12.672Z,28.90
2023-03-16T09:14:16.477Z,28.80
2023-03-16T09:17:20.851Z,28.90
2023-03-16T09:20:26.918Z,28.60
2023-03-16T09:23:34.362Z,28.30
2023-03-16T09:26:37.502Z,28.20
2023-03-16T09:29:41.072Z,28.30
2023-03-16T09:32:48.848Z,28.00
2023-03-16T09:35:52.596Z,27.80
2023-03-16T09:38:55.478Z,28.10
2023-03-16T09:42:02.602Z,28.60
2023-03-16T09:45:27.559Z,28.80
2023-03-16T09:48:35.679Z,28.20
2023-03-16T09:52:39.453Z,27.20
2023-03-16T09:55:48.402Z,26.80
2023-03-16T09:58:50.977Z,27.40
2023-03-16T10:02:28.927Z,27.20
2023-03-16T10:05:33.045Z,27.10
2023-03-16T10:08:48.612Z,27.30
2023-03-16T10:11:56.859Z,27.60
2023-03-16T10:15:09.523Z,28.10
2023-03-16T10:18:16.360Z,28.10
2023-03-16T10:21:21.231Z,28.50
2023-03-16T10:24:45.490Z,28.50
2023-03-16T10:27:53.244Z,29.00
2023-03-16T10:31:11.558Z,28.60
2023-03-16T10:34:15.378Z,27.90
2023-03-16T10:37:20.431Z,27.70
2023-03-16T10:40:38.869Z,27.90
2023-03-16T10:43:42.034Z,28.30
2023-03-16T10:47:06.473Z,27.80
2023-03-16T10:50:20.714Z,27.90
2023-03-16T10:53:30.017Z,27.40
2023-03-16T10:56:35.554Z,28.10
2023-03-16T10:59:41.041Z,28.50
2023-03-16T11:02:44.080Z,28.70
2023-03-16T11:05:47.306Z,28.10
2023-03-16T11:08:52.902Z,27.00
2023-03-16T11:11:58.869Z,27.50
2023-03-16T11:15:25.210Z,28.20
2023-03-16T11:18:33.257Z,28.60
2023-03-16T11:21:55.164Z,29.10
2023-03-16T11:25:18.774Z,29.20
2023-03-16T11:28:34.906Z,29.40
2023-03-16T11:31:49.524Z,29.20
2023-03-16T11:34:52.894Z,28.60
2023-03-16T11:38:11.394Z,27.80
2023-03-16T11:41:28.926Z,28.30
2023-03-16T11:44:50.729Z,28.20
2023-03-16T11:48:20.499Z,28.20
2023-03-16T11:51:42.214Z,29.00
2023-03-16T11:55:09.193Z,29.10
2023-03-16T11:58:37.508Z,29.60
2023-03-16T12:01:47.762Z,29.60
2023-03-16T12:05:28.558Z,29.40
2023-03-16T12:08:39.581Z,29.50
2023-03-16T12:11:45.294Z,28.80
2023-03-16T12:15:03.377Z,27.50
2023-03-16T12:18:41.603Z,26.70
2023-03-16T12:21:49.035Z,27.70
2023-03-16T12:24:53.281Z,28.50
2023-03-16T12:27:58.897Z,28.20
2023-03-16T12:31:36.451Z,28.70
2023-03-16T12:34:56.595Z,28.20
2023-03-16T12:38:25.959Z,27.70
2023-03-16T12:41:29.608Z,27.80
2023-03-16T12:44:38.951Z,27.00
2023-03-16T12:47:58.754Z,26.80
2023-03-16T12:51:05.123Z,25.80
2023-03-16T12:54:28.410Z,25.20
2023-03-16T12:57:32.019Z,24.60
2023-03-16T13:00:40.783Z,24.40
2023-03-16T13:03:46.687Z,23.70
2023-03-16T13:06:52.769Z,24.90
2023-03-16T13:10:13.825Z,26.20
2023-03-16T13:13:18.319Z,26.70
2023-03-16T13:16:33.836Z,27.80
2023-03-16T13:19:38.192Z,28.50
2023-03-16T13:22:46.557Z,28.70
2023-03-16T13:26:24.163Z,29.30
2023-03-16T13:29:31.215Z,29.00
2023-03-16T13:32:35.030Z,29.30
2023-03-16T13:35:50.306Z,29.70
2023-03-16T13:39:23.356Z,29.40
2023-03-16T13:42:34.036Z,28.80
2023-03-16T13:45:38.862Z,27.90
2023-03-16T13:48:41.847Z,28.50
2023-03-16T13:51:46.865Z,29.50
2023-03-16T13:54:51.425Z,30.00
2023-03-16T13:57:55.723Z,30.30
2023-03-16T14:01:01.683Z,29.90
2023-03-16T14:04:13.498Z,29.60
2023-03-16T14:07:19.011Z,28.00
2023-03-16T14:10:23.005Z,28.30
2023-03-16T14:13:28.117Z,28.10
2023-03-16T14:16:32.111Z,27.60
2023-03-16T14:20:14.905Z,27.70
2023-03-16T14:23:25.793Z,27.60
2023-03-16T14:26:38.829Z,27.80
2023-03-16T14:29:43.442Z,28.30
2023-03-16T14:32:56.607Z,28.20
2023-03-16T14:36:07.588Z,28.10
2023-03-16T14:39:16.913Z,27.60
2023-03-16T14:42:28.942Z,26.10
2023-03-16T14:45:36.548Z,25.60
2023-03-16T14:48:39.322Z,26.60
2023-03-16T14:51:41.930Z,27.80
2023-03-16T14:54:43.940Z,28.20
2023-03-16T14:57:47.074Z,28.00
2023-03-16T15:00:53.756Z,27.60
2023-03-16T15:03:56.889Z,27.40
2023-03-16T15:06:59.589Z,27.50
2023-03-16T15:10:16.784Z,26.40
2023-03-16T15:13:39.905Z,27.30
2023-03-16T15:16:42.663Z,26.50
2023-03-16T15:19:44.835Z,26.30
2023-03-16T15:22:48.815Z,27.50
2023-03-16T15:25:52.872Z,27.50
2023-03-16T15:28:57.062Z,27.40
2023-03-16T15:31:59.673Z,27.00
2023-03-16T15:35:02.471Z,27.50
2023-03-16T15:38:27.596Z,27.90
2023-03-16T15:41:38.144Z,28.00
2023-03-16T15:44:47.570Z,28.40
2023-03-16T15:47:52.618Z,28.90
2023-03-16T15:50:56.229Z,29.10
2023-03-16T15:54:02.148Z,28.80
2023-03-16T15:57:05.771Z,28.40
2023-03-16T16:00:23.190Z,28.40
2023-03-16T16:03:27.977Z,29.00
2023-03-16T16:06:30.645Z,29.10
2023-03-16T16:09:35.305Z,29.20
2023-03-16T16:12:41.228Z,29.20
2023-03-16T16:15:47.333Z,29.00
2023-03-16T16:18:49.888Z,29.10
2023-03-16T16:21:52.317Z,29.40
2023-03-16T16:24:54.855Z,29.40
2023-03-16T16:27:56.989Z,29.50
2023-03-16T16:31:03.294Z,29.10
2023-03-16T16:34:33.617Z,29.10
2023-03-16T16:37:36.190Z,28.90
2023-03-16T16:40:40.978Z,29.00
2023-03-16T16:43:49.100Z,29.00
2023-03-16T16:46:52.178Z,29.40
2023-03-16T16:49:54.462Z,29.50
2023-03-16T16:52:57.410Z,29.30
2023-03-16T16:56:20.904Z,29.30
2023-03-16T16:59:33.837Z,29.30
2023-03-16T17:02:45.288Z,29.00
2023-03-16T17:05:48.489Z,29.10
2023-03-16T17:08:52.490Z,28.90
2023-03-16T17:11:58.764Z,28.80
2023-03-16T17:15:02.091Z,28.90
2023-03-16T17:18:09.898Z,28.80
2023-03-16T17:21:16.211Z,28.80
2023-03-16T17:24:18.345Z,28.80
2023-03-16T17:27:28.606Z,28.70
2023-03-16T17:30:32.362Z,28.70
2023-03-16T17:33:34.700Z,28.60
2023-03-16T17:36:37.251Z,28.40
2023-03-16T17:39:40.404Z,28.40
2023-03-16T17:42:42.407Z,28.30
2023-03-16T17:45:47.098Z,28.30
2023-03-16T17:48:51.781Z,28.10
2023-03-16T17:51:55.437Z,28.10
2023-03-16T17:54:57.754Z,27.90
2023-03-16T17:58:00.250Z,27.90
2023-03-16T18:01:04.386Z,27.90
2023-03-16T18:04:19.112Z,27.90
2023-03-16T18:07:21.310Z,27.90
2023-03-16T18:10:26.583Z,27.80
2023-03-16T18:13:33.545Z,27.70
2023-03-16T18:16:36.414Z,27.70
2023-03-16T18:19:38.767Z,27.60
2023-03-16T18:22:42.688Z,27.60
2023-03-16T18:25:45.755Z,27.60
2023-03-16T18:28:48.440Z,27.40
2023-03-16T18:31:53.925Z,27.40
2023-03-16T18:34:57.852Z,27.40
2023-03-16T18:38:00.716Z,27.40
2023-03-16T18:41:22.703Z,27.30
2023-03-16T18:44:29.860Z,27.30
2023-03-16T18:47:33.093Z,27.20
2023-03-16T18:50:35.419Z,27.20
2023-03-16T18:53:38.769Z,27.20
2023-03-16T18:56:41.533Z,27.20
2023-03-16T18:59:43.921Z,27.20
2023-03-16T19:02:52.517Z,27.00
2023-03-16T19:05:59.230Z,27.10
2023-03-16T19:09:17.490Z,27.20
2023-03-16T19:12:23.203Z,27.20
2023-03-16T19:15:36.200Z,27.20
2023-03-16T19:18:47.460Z,27.20
2023-03-16T19:21:52.776Z,27.10
2023-03-16T19:24:59.114Z,27.10
2023-03-16T19:28:02.226Z,27.00
2023-03-16T19:31:15.211Z,27.10
2023-03-16T19:34:19.041Z,27.10
2023-03-16T19:37:23.904Z,27.10
2023-03-16T19:40:28.784Z,27.00
2023-03-16T19:43:31.066Z,27.00
2023-03-16T19:46:33.715Z,26.90
2023-03-16T19:49:39.744Z,26.90
2023-03-16T19:52:42.099Z,26.90
2023-03-16T19:55:45.965Z,26.90
2023-03-16T19:58:54.729Z,26.90
2023-03-16T20:01:58.978Z,26.90
2023-03-16T20:05:01.561Z,26.80
2023-03-16T20:08:12.763Z,26.80
2023-03-16T20:11:30.271Z,26.80
2023-03-16T20:14:36.331Z,26.80
2023-03-16T20:17:38.482Z,26.70
2023-03-16T20:20:42.044Z,26.70
2023-03-16T20:23:44.461Z,26.80
2023-03-16T20:26:49.628Z,26.80
2023-03-16T20:29:51.881Z,26.80
2023-03-16T20:32:54.397Z,26.80
2023-03-16T20:35:57.048Z,26.90
2023-03-16T20:38:59.327Z,26.80
2023-03-16T20:42:01.381Z,26.80
2023-03-16T20:45:24.266Z,26.80
2023-03-16T20:48:27.540Z,26.70
2023-03-16T20:51:32.515Z,26.70
2023-03-16T20:54:34.790Z,26.70
2023-03-16T20:57:39.110Z,26.70
2023-03-16T21:00:41.107Z,26.60
2023-03-16T21:03:48.060Z,26.60
2023-03-16T21:06:51.331Z,26.60
2023-03-16T21:09:54.848Z,26.60
2023-03-16T21:12:57.530Z,26.30
2023-03-16T21:16:03.575Z,26.50
2023-03-16T21:19:16.330Z,26.50
2023-03-16T21:22:26.005Z,26.40
2023-03-16T21:25:30.968Z,26.50
2023-03-16T21:28:35.552Z,26.60
2023-03-16T21:31:38.883Z,26.70
2023-03-16T21:34:41.160Z,26.70
2023-03-16T21:37:43.366Z,26.90
2023-03-16T21:40:47.331Z,26.90
2023-03-16T21:43:50.365Z,27.00
2023-03-16T21:46:52.910Z,27.10
2023-03-16T21:49:56.052Z,27.00
2023-03-16T21:52:58.289Z,27.20
2023-03-16T21:56:01.304Z,27.20
2023-03-16T21:59:03.720Z,27.30
2023-03-16T22:02:21.164Z,27.30
2023-03-16T22:05:39.353Z,27.30
2023-03-16T22:08:41.700Z,27.20
2023-03-16T22:11:44.093Z,27.20
2023-03-16T22:14:46.089Z,27.30
2023-03-16T22:17:48.434Z,27.20
2023-03-16T22:20:50.395Z,27.40
2023-03-16T22:23:52.915Z,27.30
2023-03-16T22:26:55.327Z,27.30
2023-03-16T22:29:57.775Z,27.30
2023-03-16T22:33:01.028Z,27.30
2023-03-16T22:36:17.526Z,27.30
2023-03-16T22:39:19.718Z,27.40
2023-03-16T22:42:38.040Z,27.30
2023-03-16T22:45:40.493Z,27.30
2023-03-16T22:48:42.750Z,27.40
2023-03-16T22:51:44.858Z,27.30
2023-03-16T22:54:47.685Z,27.30
2023-03-16T22:57:53.750Z,27.20
2023-03-16T23:00:56.693Z,27.20
2023-03-16T23:03:58.679Z,27.10
2023-03-16T23:07:00.964Z,27.00
2023-03-16T23:10:02.995Z,26.80
2023-03-16T23:13:18.528Z,26.90
2023-03-16T23:16:33.995Z,26.80
2023-03-16T23:19:36.531Z,26.70
2023-03-16T23:22:40.859Z,26.60
2023-03-16T23:25:47.830Z,26.80
2023-03-16T23:28:51.430Z,26.80
2023-03-16T23:31:54.549Z,26.90
2023-03-16T23:34:56.620Z,27.00
2023-03-16T23:37:59.180Z,27.10
2023-03-16T23:41:01.720Z,27.10
2023-03-16T23:44:06.666Z,27.00
2023-03-16T23:47:10.896Z,27.00
2023-03-16T23:50:14.697Z,27.10
2023-03-16T23:53:18.722Z,27.10
2023-03-16T23:56:22.229Z,27.00
2023-03-16T23:59:24.798Z,27.00
